Time;durP1;ratioP1;P1;durP2;ratioP2;P2;SDS_P1;SDS_P2;PMS_P1;PMS_P2;Temp;Humidity;BMP_temperature;BMP_pressure;BME280_temperature;BME280_humidity;BME280_pressure;Samples;Min_cycle;Max_cycle;Signal;HPM_P1;HPM_P2
2023/06/08 00:00:50;;;;;;;6.23;5.30;;;21.90;1.00;;;;;;4961920;28;20540;-80
2023/06/08 00:03:20;;;;;;;7.30;6.70;;;21.80;1.00;;;;;;4963164;28;20656;-80
2023/06/08 00:05:50;;;;;;;7.60;5.80;;;21.80;1.00;;;;;;4944055;28;20552;-81
2023/06/08 00:08:19;;;;;;;6.63;5.03;;;21.70;1.00;;;;;;4937622;28;21001;-80
2023/06/08 00:10:47;;;;;;;6.80;5.93;;;21.60;1.00;;;;;;4944379;28;20482;-81
2023/06/08 00:13:16;;;;;;;6.33;5.70;;;21.50;1.00;;;;;;4928311;28;20556;-80
2023/06/08 00:15:44;;;;;;;8.43;6.10;;;21.50;1.00;;;;;;4932910;28;20458;-80
2023/06/08 00:18:11;;;;;;;6.90;5.50;;;21.50;1.00;;;;;;4934381;28;20493;-79
2023/06/08 00:20:39;;;;;;;6.10;5.57;;;21.40;1.00;;;;;;4931210;28;20477;-79
2023/06/08 00:23:06;;;;;;;6.00;5.50;;;21.40;1.00;;;;;;4942877;28;20511;-79
2023/06/08 00:25:33;;;;;;;8.23;4.83;;;21.40;1.00;;;;;;4945117;28;20472;-80
2023/06/08 00:28:00;;;;;;;7.13;5.20;;;21.40;1.00;;;;;;4928558;28;20911;-81
2023/06/08 00:30:28;;;;;;;7.50;5.60;;;21.30;1.00;;;;;;4938592;28;20601;-80
2023/06/08 00:32:56;;;;;;;5.63;5.13;;;21.30;1.00;;;;;;4942040;28;20605;-79
2023/06/08 00:35:26;;;;;;;5.30;4.80;;;21.20;1.00;;;;;;4942793;28;20471;-79
2023/06/08 00:37:54;;;;;;;7.50;5.30;;;21.20;1.00;;;;;;4940587;28;20506;-79
2023/06/08 00:40:22;;;;;;;6.43;5.13;;;21.20;1.00;;;;;;4939024;28;20475;-78
2023/06/08 00:42:51;;;;;;;6.27;5.67;;;21.10;1.00;;;;;;4940489;28;20538;-81
2023/06/08 00:45:18;;;;;;;5.73;5.23;;;21.10;1.00;;;;;;4942597;28;20549;-81
2023/06/08 00:47:45;;;;;;;6.47;5.80;;;21.00;1.00;;;;;;4943612;28;20490;-81
2023/06/08 00:50:18;;;;;;;5.73;5.23;;;20.90;1.00;;;;;;4940628;28;20860;-80
2023/06/08 00:52:45;;;;;;;8.30;5.63;;;20.90;1.00;;;;;;4940742;28;21343;-79
2023/06/08 00:55:19;;;;;;;6.53;5.20;;;20.80;1.00;;;;;;4940776;28;20478;-80
2023/06/08 00:57:47;;;;;;;6.43;5.83;;;20.70;1.00;;;;;;4942557;28;20487;-80
2023/06/08 01:00:15;;;;;;;5.80;5.20;;;20.60;1.00;;;;;;4945071;28;20497;-80
2023/06/08 01:02:42;;;;;;;6.13;5.37;;;20.60;1.00;;;;;;4938781;28;20469;-79
2023/06/08 01:05:12;;;;;;;6.97;6.10;;;20.50;1.00;;;;;;4956165;28;20469;-80
2023/06/08 01:07:53;;;;;;;6.27;5.67;;;20.50;1.00;;;;;;4945126;28;20856;-80
2023/06/08 01:10:30;;;;;;;7.03;5.60;;;20.40;1.00;;;;;;4961735;28;20479;-79
2023/06/08 01:13:04;;;;;;;7.20;6.60;;;20.40;1.00;;;;;;4961133;28;20942;-79
2023/06/08 01:15:36;;;;;;;6.30;5.70;;;20.40;1.00;;;;;;4962643;28;20580;-81
2023/06/08 01:18:08;;;;;;;5.50;5.00;;;20.40;1.00;;;;;;4960155;28;22556;-82
2023/06/08 01:20:49;;;;;;;6.57;5.80;;;20.50;1.00;;;;;;4963421;28;20460;-82
2023/06/08 01:23:26;;;;;;;6.23;5.73;;;20.40;1.00;;;;;;4960555;28;22979;-83
2023/06/08 01:26:00;;;;;;;5.90;5.40;;;20.50;1.00;;;;;;4965065;28;20461;-82
2023/06/08 01:28:30;;;;;;;5.73;5.23;;;20.50;1.00;;;;;;4959498;28;20570;-82
2023/06/08 01:30:58;;;;;;;6.40;5.80;;;20.50;1.00;;;;;;4947466;28;20460;-81
2023/06/08 01:33:30;;;;;;;6.20;5.70;;;20.50;1.00;;;;;;4960592;28;20534;-82
2023/06/08 01:36:05;;;;;;;7.57;5.63;;;20.60;1.00;;;;;;4962256;28;20508;-81
2023/06/08 01:38:40;;;;;;;5.80;5.30;;;20.70;1.00;;;;;;4960530;28;20460;-81
2023/06/08 01:41:17;;;;;;;8.20;6.47;;;20.60;1.00;;;;;;4960634;28;20964;-81
2023/06/08 01:43:50;;;;;;;6.73;6.13;;;20.60;1.00;;;;;;4963462;28;20536;-80
2023/06/08 01:46:20;;;;;;;6.83;6.23;;;20.70;1.00;;;;;;4957747;28;20515;-80
2023/06/08 01:48:50;;;;;;;6.17;5.57;;;20.60;1.00;;;;;;4963501;28;20480;-81
2023/06/08 01:51:18;;;;;;;5.63;5.13;;;20.60;1.00;;;;;;4961250;28;20467;-80
2023/06/08 01:53:45;;;;;;;6.20;5.60;;;20.50;1.00;;;;;;4960441;28;20483;-81
2023/06/08 01:56:15;;;;;;;8.87;5.53;;;20.40;1.00;;;;;;4958007;28;20989;-81
2023/06/08 01:58:42;;;;;;;6.90;5.63;;;20.30;1.00;;;;;;4962093;28;20498;-80
2023/06/08 02:01:09;;;;;;;6.07;5.47;;;20.30;1.00;;;;;;4960162;28;20534;-80
2023/06/08 02:03:36;;;;;;;6.50;5.57;;;20.20;1.00;;;;;;4962480;28;20597;-80
2023/06/08 02:06:03;;;;;;;9.10;6.20;;;20.10;1.00;;;;;;4960806;28;20994;-80
2023/06/08 02:08:30;;;;;;;6.37;5.70;;;20.10;1.00;;;;;;4963489;28;20477;-80
2023/06/08 02:10:57;;;;;;;6.13;5.63;;;20.10;1.00;;;;;;4962084;28;20547;-80
2023/06/08 02:13:29;;;;;;;7.90;5.53;;;20.00;1.00;;;;;;4952439;28;20492;-81
2023/06/08 02:15:58;;;;;;;6.70;6.10;;;20.00;1.00;;;;;;4965702;28;20510;-81
2023/06/08 02:18:26;;;;;;;6.83;5.60;;;19.90;1.00;;;;;;4964370;28;20497;-81
2023/06/08 02:20:57;;;;;;;6.63;5.83;;;19.80;1.00;;;;;;4966892;28;20980;-80
2023/06/08 02:23:24;;;;;;;7.23;5.70;;;19.80;1.00;;;;;;4963349;28;20449;-80
2023/06/08 02:25:51;;;;;;;6.23;5.57;;;19.80;1.00;;;;;;4962960;28;20494;-81
2023/06/08 02:28:18;;;;;;;7.13;6.20;;;19.80;1.00;;;;;;4961877;28;20495;-79
2023/06/08 02:30:47;;;;;;;6.17;5.33;;;19.80;1.00;;;;;;4962591;28;20464;-82
2023/06/08 02:33:16;;;;;;;8.50;5.93;;;19.70;1.00;;;;;;4963161;28;20568;-79
2023/06/08 02:35:50;;;;;;;8.70;6.40;;;19.70;1.00;;;;;;4963502;28;20471;-80
2023/06/08 02:38:17;;;;;;;8.47;6.27;;;19.60;1.00;;;;;;4961819;28;20511;-81
2023/06/08 02:40:44;;;;;;;6.10;5.50;;;19.60;1.00;;;;;;4966174;28;20458;-81
2023/06/08 02:43:11;;;;;;;5.90;5.43;;;19.60;1.00;;;;;;4964644;28;20502;-81
2023/06/08 02:45:40;;;;;;;11.63;7.50;;;19.60;1.00;;;;;;4964811;28;20472;-81
2023/06/08 02:48:08;;;;;;;8.40;5.70;;;19.50;1.00;;;;;;4963489;28;20489;-81
2023/06/08 02:50:35;;;;;;;6.27;5.77;;;19.60;1.00;;;;;;4964936;28;20545;-81
2023/06/08 02:53:03;;;;;;;6.93;6.23;;;19.60;1.00;;;;;;4965064;28;20482;-81
2023/06/08 02:55:34;;;;;;;9.47;6.50;;;19.60;1.00;;;;;;4965934;28;20467;-80
2023/06/08 02:58:02;;;;;;;7.93;6.40;;;19.60;1.00;;;;;;4945492;28;20513;-80
2023/06/08 03:00:31;;;;;;;8.90;6.50;;;19.50;1.00;;;;;;4963465;28;20524;-81
2023/06/08 03:03:00;;;;;;;5.60;5.03;;;19.60;1.00;;;;;;4950213;28;21107;-80
2023/06/08 03:05:34;;;;;;;7.57;6.80;;;19.60;1.00;;;;;;4962608;28;20475;-81
2023/06/08 03:08:02;;;;;;;6.57;5.87;;;19.60;1.00;;;;;;4960329;28;21012;-81
2023/06/08 03:10:29;;;;;;;6.67;6.07;;;19.60;1.00;;;;;;4966951;28;20462;-81
2023/06/08 03:12:56;;;;;;;5.60;5.10;;;19.50;1.00;;;;;;4962629;28;20596;-81
2023/06/08 03:15:25;;;;;;;6.13;5.53;;;19.50;1.00;;;;;;4960966;28;20497;-82
2023/06/08 03:17:52;;;;;;;6.20;5.60;;;19.40;1.00;;;;;;4962914;28;20474;-82
2023/06/08 03:20:19;;;;;;;6.83;6.13;;;19.40;1.00;;;;;;4964038;28;20548;-82
2023/06/08 03:22:48;;;;;;;9.73;5.80;;;19.40;1.00;;;;;;4960863;28;20566;-82
2023/06/08 03:25:16;;;;;;;6.50;5.70;;;19.40;1.00;;;;;;4962218;28;20421;-81
2023/06/08 03:27:43;;;;;;;6.63;5.77;;;19.40;1.00;;;;;;4963586;28;20489;-82
2023/06/08 03:30:12;;;;;;;7.00;6.07;;;19.40;1.00;;;;;;4961003;28;20481;-80
2023/06/08 03:32:39;;;;;;;6.23;5.50;;;19.40;1.00;;;;;;4966074;28;20480;-82
2023/06/08 03:35:07;;;;;;;7.00;6.30;;;19.40;1.00;;;;;;4961238;28;20506;-81
2023/06/08 03:37:34;;;;;;;7.20;6.60;;;19.50;1.00;;;;;;4948391;28;20483;-82
2023/06/08 03:40:03;;;;;;;11.87;6.33;;;19.50;1.00;;;;;;4963089;28;20485;-81
2023/06/08 03:42:30;;;;;;;13.80;6.60;;;19.60;1.00;;;;;;4951446;28;20482;-82
2023/06/08 03:44:57;;;;;;;10.70;6.97;;;19.60;1.00;;;;;;4964865;28;20470;-80
2023/06/08 03:47:25;;;;;;;10.43;7.83;;;19.70;1.00;;;;;;4965658;28;20486;-81
2023/06/08 03:49:52;;;;;;;7.67;6.77;;;19.80;1.00;;;;;;4963087;28;20493;-80
2023/06/08 03:52:19;;;;;;;6.70;5.97;;;19.90;1.00;;;;;;4965303;28;20905;-80
2023/06/08 03:54:46;;;;;;;6.73;6.07;;;19.90;1.00;;;;;;4963783;28;20861;-80
2023/06/08 03:57:15;;;;;;;5.90;5.30;;;20.00;1.00;;;;;;4964613;28;20475;-81
2023/06/08 03:59:42;;;;;;;6.20;5.70;;;20.00;1.00;;;;;;4965074;28;20463;-80
2023/06/08 04:02:14;;;;;;;7.43;6.40;;;20.00;1.00;;;;;;4964017;28;20475;-80
2023/06/08 04:04:44;;;;;;;8.77;7.07;;;20.00;1.00;;;;;;4960093;28;20992;-81
2023/06/08 04:07:12;;;;;;;8.00;6.03;;;20.10;1.00;;;;;;4944950;28;20487;-82
2023/06/08 04:09:40;;;;;;;6.77;6.07;;;20.10;1.00;;;;;;4964918;28;20431;-82
2023/06/08 04:12:08;;;;;;;6.67;6.07;;;20.10;1.00;;;;;;4964246;28;20479;-81
2023/06/08 04:14:36;;;;;;;7.47;5.50;;;20.00;1.00;;;;;;4963778;28;20460;-81
2023/06/08 04:17:05;;;;;;;5.90;5.23;;;20.00;1.00;;;;;;4966612;28;20509;-81
2023/06/08 04:19:33;;;;;;;8.60;6.87;;;20.00;1.00;;;;;;4966680;28;20480;-81
2023/06/08 04:22:00;;;;;;;9.63;8.40;;;20.00;1.00;;;;;;4962366;28;20840;-83
2023/06/08 04:24:28;;;;;;;9.77;6.13;;;20.00;1.00;;;;;;4965581;28;20511;-82
2023/06/08 04:27:12;;;;;;;7.60;6.07;;;20.00;1.00;;;;;;4964348;28;20488;-84
2023/06/08 04:29:42;;;;;;;9.40;6.10;;;20.00;1.00;;;;;;4964532;28;22330;-83
2023/06/08 04:32:10;;;;;;;10.00;6.50;;;20.10;1.00;;;;;;4964922;28;20499;-76
2023/06/08 04:34:37;;;;;;;69.57;13.10;;;20.10;1.00;;;;;;4930632;28;20483;-75
2023/06/08 04:37:07;;;;;;;12.00;7.13;;;20.20;1.00;;;;;;4959318;28;20980;-75
2023/06/08 04:39:35;;;;;;;13.37;8.83;;;20.30;1.00;;;;;;4958887;28;20514;-77
2023/06/08 04:42:05;;;;;;;8.77;6.87;;;20.40;1.00;;;;;;4943539;28;20970;-75
2023/06/08 04:44:33;;;;;;;9.53;6.80;;;20.40;1.00;;;;;;4963773;28;20469;-76
2023/06/08 04:47:02;;;;;;;9.03;6.77;;;20.60;1.00;;;;;;4958322;28;20494;-77
2023/06/08 04:49:32;;;;;;;9.20;6.17;;;20.60;1.00;;;;;;4959142;28;22448;-76
2023/06/08 04:52:01;;;;;;;9.63;5.90;;;20.70;1.00;;;;;;4961674;28;20469;-75
2023/06/08 04:54:29;;;;;;;11.80;7.73;;;20.80;1.00;;;;;;4933614;28;20490;-76
2023/06/08 04:56:58;;;;;;;10.40;7.20;;;20.80;1.00;;;;;;4961538;28;20592;-76
2023/06/08 04:59:28;;;;;;;11.30;7.90;;;20.90;1.00;;;;;;4962279;28;21031;-76
2023/06/08 05:01:55;;;;;;;11.47;6.87;;;21.00;1.00;;;;;;4948602;28;20920;-77
2023/06/08 05:04:25;;;;;;;13.53;8.07;;;21.00;1.00;;;;;;4960150;28;20474;-77
2023/06/08 05:06:52;;;;;;;18.43;7.73;;;21.10;1.00;;;;;;4955634;28;20483;-76
2023/06/08 05:09:20;;;;;;;21.20;7.43;;;21.20;1.00;;;;;;4944362;28;20453;-76
2023/06/08 05:11:51;;;;;;;15.17;7.20;;;21.40;1.00;;;;;;4945149;28;20474;-75
2023/06/08 05:14:22;;;;;;;7.93;7.23;;;21.40;1.00;;;;;;4953576;28;20480;-76
2023/06/08 05:16:49;;;;;;;19.03;7.93;;;21.50;1.00;;;;;;4959975;28;20465;-76
2023/06/08 05:19:17;;;;;;;9.47;6.57;;;21.50;1.00;;;;;;4956596;28;20464;-77
2023/06/08 05:21:45;;;;;;;6.07;5.47;;;21.60;1.00;;;;;;4958404;28;20969;-77
2023/06/08 05:24:22;;;;;;;8.70;5.67;;;21.70;1.00;;;;;;4960391;28;20599;-77
2023/06/08 05:26:49;;;;;;;8.40;5.57;;;21.80;1.00;;;;;;4940354;28;20524;-76
2023/06/08 05:29:16;;;;;;;16.77;8.40;;;21.80;1.00;;;;;;4952674;28;20515;-76
2023/06/08 05:31:43;;;;;;;16.10;6.70;;;21.90;1.00;;;;;;4958401;28;20526;-79
2023/06/08 05:34:10;;;;;;;20.60;7.90;;;21.90;1.00;;;;;;4960372;28;22651;-77
2023/06/08 05:36:38;;;;;;;10.70;6.80;;;21.90;1.00;;;;;;4961673;28;20491;-77
2023/06/08 05:39:09;;;;;;;16.43;8.10;;;21.90;1.00;;;;;;4957938;28;20943;-76
2023/06/08 05:41:39;;;;;;;12.17;7.37;;;22.00;1.00;;;;;;4957887;28;20468;-77
2023/06/08 05:44:10;;;;;;;10.40;6.67;;;22.10;1.00;;;;;;4957715;28;20533;-76
2023/06/08 05:46:37;;;;;;;10.60;6.60;;;22.30;1.00;;;;;;4956091;28;20565;-78
2023/06/08 05:49:07;;;;;;;6.53;5.60;;;22.30;1.00;;;;;;4960356;28;21108;-79
2023/06/08 05:51:35;;;;;;;14.10;6.90;;;22.40;1.00;;;;;;4959316;28;20488;-77
2023/06/08 05:54:02;;;;;;;10.07;6.70;;;22.50;1.00;;;;;;4957222;28;20791;-77
2023/06/08 05:56:32;;;;;;;8.37;7.50;;;22.50;1.00;;;;;;4962525;28;20486;-77
2023/06/08 05:59:02;;;;;;;16.27;7.27;;;22.60;1.00;;;;;;4960214;28;20490;-76
2023/06/08 06:01:29;;;;;;;9.23;5.93;;;22.70;1.00;;;;;;4962949;28;20894;-77
2023/06/08 06:03:57;;;;;;;10.90;7.97;;;22.80;1.00;;;;;;4964157;28;20482;-78
2023/06/08 06:06:27;;;;;;;11.00;7.07;;;22.90;1.00;;;;;;4959241;28;20466;-77
2023/06/08 06:08:54;;;;;;;8.70;6.70;;;23.10;1.00;;;;;;4960667;28;20456;-78
2023/06/08 06:11:25;;;;;;;7.00;6.30;;;23.20;1.00;;;;;;4964074;28;20988;-78
2023/06/08 06:13:54;;;;;;;10.60;7.50;;;23.30;1.00;;;;;;4962385;28;20476;-77
2023/06/08 06:16:24;;;;;;;7.63;5.90;;;23.30;1.00;;;;;;4945612;28;20460;-79
2023/06/08 06:18:51;;;;;;;8.67;6.60;;;23.40;1.00;;;;;;4962224;28;20956;-78
2023/06/08 06:21:19;;;;;;;12.50;7.60;;;23.50;1.00;;;;;;4965504;28;20875;-76
2023/06/08 06:23:47;;;;;;;9.40;6.33;;;23.50;1.00;;;;;;4968196;28;20494;-78
2023/06/08 06:26:17;;;;;;;12.00;7.10;;;23.70;1.00;;;;;;4967739;28;20480;-77
2023/06/08 06:29:02;;;;;;;6.43;5.77;;;24.00;1.00;;;;;;4971417;28;20985;-77
2023/06/08 06:31:33;;;;;;;8.30;5.90;;;24.20;1.00;;;;;;4966407;28;20572;-75
2023/06/08 06:34:00;;;;;;;6.33;5.73;;;24.30;1.00;;;;;;4964830;28;20443;-77
2023/06/08 06:36:30;;;;;;;6.80;5.90;;;24.30;1.00;;;;;;4969436;28;20556;-76
2023/06/08 06:38:57;;;;;;;6.30;5.80;;;24.40;1.00;;;;;;4969370;28;20471;-78
2023/06/08 06:41:25;;;;;;;6.63;6.07;;;24.30;1.00;;;;;;4963509;28;20465;-77
2023/06/08 06:43:52;;;;;;;6.13;5.60;;;24.20;1.00;;;;;;4967243;28;20519;-77
2023/06/08 06:46:21;;;;;;;6.20;5.67;;;24.10;1.00;;;;;;4967143;28;20976;-77
2023/06/08 06:48:50;;;;;;;8.13;6.50;;;24.10;1.00;;;;;;4967390;28;20496;-77
2023/06/08 06:51:17;;;;;;;11.47;8.43;;;24.10;1.00;;;;;;4971421;28;20891;-77
2023/06/08 06:53:45;;;;;;;8.43;6.57;;;24.20;1.00;;;;;;4970765;28;20483;-78
2023/06/08 06:56:14;;;;;;;14.70;13.27;;;24.20;1.00;;;;;;4969165;28;20477;-77
2023/06/08 06:58:44;;;;;;;32.60;26.97;;;24.30;1.00;;;;;;4971704;28;20434;-76
2023/06/08 07:01:15;;;;;;;36.03;21.80;;;24.50;1.00;;;;;;4966086;28;20487;-77
2023/06/08 07:03:45;;;;;;;13.87;9.33;;;24.60;1.00;;;;;;4968310;28;20461;-78
2023/06/08 07:06:13;;;;;;;10.57;9.13;;;24.90;1.00;;;;;;4965862;28;20907;-76
2023/06/08 07:08:45;;;;;;;14.37;12.90;;;25.30;1.00;;;;;;4965071;28;20554;-78
2023/06/08 07:11:13;;;;;;;25.00;23.00;;;25.40;1.00;;;;;;4968782;28;20869;-77
2023/06/08 07:13:41;;;;;;;25.00;20.63;;;25.50;1.00;;;;;;4966856;28;20453;-76
2023/06/08 07:16:08;;;;;;;8.10;7.40;;;25.70;1.00;;;;;;4968134;28;21034;-78
2023/06/08 07:18:37;;;;;;;13.37;8.43;;;25.80;1.00;;;;;;4964539;28;21279;-77
2023/06/08 07:21:04;;;;;;;7.60;5.63;;;25.90;1.00;;;;;;4968046;28;20629;-76
2023/06/08 07:23:35;;;;;;;9.50;7.10;;;26.10;1.00;;;;;;4967358;28;21114;-76
2023/06/08 07:26:03;;;;;;;13.17;11.83;;;26.10;1.00;;;;;;4962684;28;21174;-78
2023/06/08 07:28:45;;;;;;;;;;;;;;;;;;;;;
2023/06/08 07:31:16;;;;;;;8.73;6.17;;;26.20;1.00;;;;;;4963522;28;38400;-80
2023/06/08 07:33:57;;;;;;;7.30;5.73;;;26.30;1.00;;;;;;4967811;28;20959;-79
2023/06/08 07:36:31;;;;;;;9.40;6.50;;;26.30;1.00;;;;;;4935569;28;20634;-79
2023/06/08 07:39:25;;;;;;;6.27;5.33;;;26.40;1.00;;;;;;4958659;28;20566;-80
2023/06/08 07:42:06;;;;;;;7.83;7.03;;;26.40;1.00;;;;;;4969646;28;20887;-79
2023/06/08 07:44:48;;;;;;;12.27;7.50;;;26.50;1.00;;;;;;4970847;28;20492;-78
2023/06/08 07:47:17;;;;;;;6.67;6.03;;;26.60;1.00;;;;;;4956015;28;20523;-78
2023/06/08 07:49:44;;;;;;;10.90;6.23;;;26.60;1.00;;;;;;4952527;28;20440;-79
2023/06/08 07:52:20;;;;;;;7.63;6.93;;;26.70;1.00;;;;;;4965934;28;20464;-78
2023/06/08 07:55:19;;;;;;;9.30;5.23;;;26.80;1.00;;;;;;4968072;28;20822;-82
2023/06/08 07:58:05;;;;;;;5.90;5.20;;;26.90;1.00;;;;;;4945789;28;20535;-79
2023/06/08 08:00:35;;;;;;;9.27;5.40;;;27.00;1.00;;;;;;4955016;28;20460;-79
2023/06/08 08:03:04;;;;;;;7.70;5.97;;;27.00;1.00;;;;;;4966219;28;20550;-79
2023/06/08 08:05:49;;;;;;;9.43;8.43;;;27.00;1.00;;;;;;4966161;28;20419;-80
2023/06/08 08:08:27;;;;;;;11.57;10.27;;;27.20;1.00;;;;;;4932917;28;20882;-81
2023/06/08 08:11:18;;;;;;;21.63;19.43;;;27.20;1.00;;;;;;4948596;28;20467;-79
2023/06/08 08:16:48;;;;;;;14.07;13.00;;;27.30;1.00;;;;;;4965568;28;20500;-79
2023/06/08 08:19:44;;;;;;;;;;;;;;;;;;;;;
2023/06/08 08:22:32;;;;;;;6.60;5.90;;;27.50;1.00;;;;;;4938802;28;41830;-81
2023/06/08 08:25:01;;;;;;;7.40;6.80;;;27.50;1.00;;;;;;4895771;29;21083;-81
2023/06/08 08:27:30;;;;;;;7.13;6.10;;;27.70;1.00;;;;;;4961412;28;20849;-80
2023/06/08 08:29:57;;;;;;;6.40;5.90;;;27.70;1.00;;;;;;4960298;28;20492;-80
2023/06/08 08:32:24;;;;;;;7.03;6.43;;;27.80;1.00;;;;;;4966409;28;20467;-81
2023/06/08 08:34:54;;;;;;;8.40;5.77;;;27.80;1.00;;;;;;4943770;28;20583;-80
2023/06/08 08:37:40;;;;;;;6.37;5.77;;;28.00;1.00;;;;;;4967542;28;20470;-81
2023/06/08 08:40:13;;;;;;;5.43;5.00;;;28.10;1.00;;;;;;4967712;28;20481;-81
2023/06/08 08:43:07;;;;;;;;;;;;;;;;;;;;;
2023/06/08 08:46:16;;;;;;;7.90;6.13;;;28.40;1.00;;;;;;4949430;28;50377;-80
2023/06/08 08:49:14;;;;;;;13.83;7.20;;;28.60;1.00;;;;;;4945889;28;20430;-82
2023/06/08 08:52:01;;;;;;;8.60;6.87;;;28.60;1.00;;;;;;4955999;28;20480;-80
2023/06/08 08:55:17;;;;;;;5.73;5.00;;;28.60;1.00;;;;;;4966440;28;20553;-82
2023/06/08 08:57:48;;;;;;;7.53;5.37;;;28.70;1.00;;;;;;4938304;28;20497;-78
2023/06/08 09:00:17;;;;;;;6.70;6.20;;;28.90;1.00;;;;;;4964829;28;20463;-80
2023/06/08 09:02:44;;;;;;;8.30;7.60;;;29.00;1.00;;;;;;4953084;28;20455;-80
2023/06/08 09:05:15;;;;;;;7.60;5.97;;;29.10;1.00;;;;;;4967232;28;20469;-79
2023/06/08 09:07:47;;;;;;;10.37;6.10;;;29.20;1.00;;;;;;4958637;28;20470;-79
2023/06/08 09:10:19;;;;;;;7.47;5.93;;;29.30;1.00;;;;;;4958135;28;20461;-80
2023/06/08 09:13:03;;;;;;;13.10;7.33;;;29.30;1.00;;;;;;4964900;28;20558;-79
2023/06/08 09:15:32;;;;;;;5.47;4.97;;;29.50;1.00;;;;;;4961744;28;20455;-79
2023/06/08 09:18:02;;;;;;;7.47;6.20;;;29.70;1.00;;;;;;4958470;28;20554;-78
2023/06/08 09:20:31;;;;;;;7.90;6.80;;;29.80;1.00;;;;;;4961743;28;20543;-78
2023/06/08 09:26:34;;;;;;;5.57;5.07;;;29.90;1.00;;;;;;4964947;28;20470;-80
2023/06/08 09:29:06;;;;;;;7.80;6.27;;;29.90;1.00;;;;;;4968143;28;20443;-78
2023/06/08 09:31:34;;;;;;;6.87;6.20;;;29.90;1.00;;;;;;4963138;28;20470;-78
2023/06/08 09:34:12;;;;;;;7.10;6.50;;;30.00;1.00;;;;;;4961307;28;20510;-78
2023/06/08 09:36:39;;;;;;;6.00;5.50;;;30.30;1.00;;;;;;4962203;28;20468;-79
2023/06/08 09:39:10;;;;;;;6.93;5.50;;;31.00;1.00;;;;;;4962753;28;20886;-78
2023/06/08 09:42:05;;;;;;;8.73;6.43;;;32.10;1.00;;;;;;4966018;28;20457;-79
2023/06/08 09:44:36;;;;;;;9.00;6.67;;;33.50;1.00;;;;;;4960161;28;20477;-77
2023/06/08 09:47:25;;;;;;;5.67;5.13;;;34.60;1.00;;;;;;4965438;28;20471;-80
2023/06/08 09:49:59;;;;;;;6.87;6.27;;;35.50;1.00;;;;;;4965048;28;20458;-80
2023/06/08 09:52:26;;;;;;;6.87;5.33;;;36.20;1.00;;;;;;4961065;28;20495;-78
2023/06/08 09:54:54;;;;;;;6.40;5.70;;;36.70;1.00;;;;;;4960961;28;20490;-78
2023/06/08 09:57:28;;;;;;;6.17;5.60;;;37.20;1.00;;;;;;4966903;28;20458;-78
2023/06/08 10:00:13;;;;;;;5.97;5.47;;;37.70;1.00;;;;;;4964248;28;20468;-78
2023/06/08 10:02:50;;;;;;;6.13;5.40;;;38.20;1.00;;;;;;4963453;28;20527;-80
2023/06/08 10:05:22;;;;;;;8.03;6.30;;;38.80;1.00;;;;;;4966021;28;20631;-78
2023/06/08 10:07:57;;;;;;;7.80;5.40;;;39.20;1.00;;;;;;4955602;28;20455;-78
2023/06/08 10:10:31;;;;;;;6.53;5.93;;;39.70;1.00;;;;;;4962978;28;20491;-77
2023/06/08 10:13:00;;;;;;;5.27;4.77;;;40.10;1.00;;;;;;4965638;28;20468;-80
2023/06/08 10:15:30;;;;;;;8.50;6.03;;;39.80;1.00;;;;;;4966155;28;20483;-79
2023/06/08 10:18:00;;;;;;;5.10;4.80;;;39.80;1.00;;;;;;4963092;28;20485;-79
2023/06/08 10:20:34;;;;;;;6.63;5.97;;;39.80;1.00;;;;;;4963759;28;20862;-79
2023/06/08 10:23:03;;;;;;;8.23;5.90;;;39.60;1.00;;;;;;4968268;28;20466;-79
2023/06/08 10:25:31;;;;;;;5.27;4.67;;;39.60;1.00;;;;;;4969321;28;20508;-78
2023/06/08 10:28:05;;;;;;;10.23;9.30;;;39.80;1.00;;;;;;4973915;28;20603;-77
2023/06/08 10:30:39;;;;;;;5.93;5.13;;;40.20;1.00;;;;;;4966961;28;20519;-80
2023/06/08 10:33:11;;;;;;;6.67;5.93;;;40.50;1.00;;;;;;4967205;28;20491;-78
2023/06/08 10:36:11;;;;;;;9.77;6.83;;;40.90;1.00;;;;;;4961651;28;20723;-82
2023/06/08 10:38:54;;;;;;;5.30;4.90;;;41.00;1.00;;;;;;4969104;28;20460;-79
2023/06/08 10:41:40;;;;;;;6.43;5.83;;;41.20;1.00;;;;;;4957223;28;20574;-78
2023/06/08 10:44:23;;;;;;;6.00;5.40;;;41.40;1.00;;;;;;4974118;28;20924;-79
2023/06/08 10:46:56;;;;;;;9.27;6.60;;;41.70;1.00;;;;;;4969706;28;20527;-80
2023/06/08 10:49:23;;;;;;;14.20;7.30;;;42.10;1.00;;;;;;4971082;28;20464;-78
2023/06/08 10:52:01;;;;;;;5.90;5.30;;;42.50;1.00;;;;;;4970432;28;20460;-80
2023/06/08 10:54:28;;;;;;;7.23;5.60;;;43.00;1.00;;;;;;4976363;28;20455;-79
2023/06/08 10:56:57;;;;;;;6.03;5.53;;;43.00;1.00;;;;;;4972421;28;20567;-78
2023/06/08 10:59:32;;;;;;;6.80;5.63;;;42.70;1.00;;;;;;4975316;28;20519;-79
2023/06/08 11:02:07;;;;;;;12.17;6.80;;;41.80;1.00;;;;;;4954876;28;20469;-79
2023/06/08 11:04:35;;;;;;;5.87;5.47;;;41.80;1.00;;;;;;4964385;28;20819;-78
2023/06/08 11:07:05;;;;;;;8.83;6.33;;;42.30;1.00;;;;;;4964247;28;20481;-78
2023/06/08 11:09:39;;;;;;;6.10;5.60;;;43.20;1.00;;;;;;4967335;28;20858;-78
2023/06/08 11:12:09;;;;;;;6.20;5.70;;;43.50;1.00;;;;;;4962992;28;20507;-78
2023/06/08 11:14:42;;;;;;;5.57;5.23;;;43.30;1.00;;;;;;4954789;28;20455;-78
2023/06/08 11:17:14;;;;;;;11.23;7.60;;;43.10;1.00;;;;;;4951760;28;20475;-79
2023/06/08 11:19:42;;;;;;;9.67;6.30;;;43.80;1.00;;;;;;4961708;28;20975;-78
2023/06/08 11:22:10;;;;;;;11.47;7.40;;;44.00;1.00;;;;;;4965398;28;20471;-78
2023/06/08 11:24:41;;;;;;;7.20;6.50;;;44.10;1.00;;;;;;4963989;28;20471;-79
2023/06/08 11:27:10;;;;;;;7.87;6.30;;;44.30;1.00;;;;;;4962697;28;20487;-78
2023/06/08 11:29:37;;;;;;;6.00;5.40;;;44.70;1.00;;;;;;4962301;28;20630;-79
2023/06/08 11:32:12;;;;;;;5.93;5.33;;;44.60;1.00;;;;;;4965899;28;20468;-79
2023/06/08 11:34:45;;;;;;;9.50;7.03;;;44.50;1.00;;;;;;4965300;28;20455;-78
2023/06/08 11:37:13;;;;;;;8.20;7.40;;;44.10;1.00;;;;;;4963421;28;20635;-79
2023/06/08 11:39:44;;;;;;;5.63;5.23;;;43.90;1.00;;;;;;4963645;28;20590;-78
2023/06/08 11:42:11;;;;;;;11.77;7.70;;;44.30;1.00;;;;;;4963120;28;20879;-78
2023/06/08 11:44:38;;;;;;;8.23;6.37;;;44.90;1.00;;;;;;4960026;28;22191;-78
2023/06/08 11:47:08;;;;;;;5.43;4.70;;;45.10;1.00;;;;;;4960942;28;20613;-79
2023/06/08 11:49:58;;;;;;;5.53;4.80;;;44.50;1.00;;;;;;4966655;28;20563;-79
2023/06/08 11:52:31;;;;;;;6.20;5.70;;;43.70;1.00;;;;;;4960235;28;21035;-79
2023/06/08 11:55:01;;;;;;;6.10;5.60;;;43.70;1.00;;;;;;4953741;28;20627;-77
2023/06/08 11:57:40;;;;;;;5.70;5.20;;;43.80;1.00;;;;;;4950178;28;20472;-77
2023/06/08 12:00:11;;;;;;;9.60;6.50;;;43.80;1.00;;;;;;4961586;28;20472;-77
2023/06/08 12:02:39;;;;;;;7.10;5.50;;;44.40;1.00;;;;;;4962522;28;22352;-79
2023/06/08 12:05:14;;;;;;;6.27;5.67;;;45.20;1.00;;;;;;4964125;28;20534;-78
2023/06/08 12:07:41;;;;;;;7.33;5.67;;;45.20;1.00;;;;;;4963372;28;20610;-78
2023/06/08 12:10:09;;;;;;;8.40;4.90;;;44.60;1.00;;;;;;4964366;28;20883;-78
2023/06/08 12:12:37;;;;;;;6.23;5.37;;;44.70;1.00;;;;;;4953830;28;20590;-79
2023/06/08 12:15:04;;;;;;;5.63;5.23;;;45.10;1.00;;;;;;4961902;28;20475;-78
2023/06/08 12:17:34;;;;;;;5.63;5.10;;;45.70;1.00;;;;;;4967135;28;20567;-79
2023/06/08 12:20:08;;;;;;;5.93;5.50;;;45.60;1.00;;;;;;4962946;28;20459;-78
2023/06/08 12:22:36;;;;;;;6.27;5.70;;;43.60;1.00;;;;;;4948757;28;20477;-78
2023/06/08 12:25:04;;;;;;;6.73;6.13;;;43.90;1.00;;;;;;4959295;28;20540;-77
2023/06/08 12:27:36;;;;;;;5.60;5.10;;;44.40;1.00;;;;;;4960473;28;20483;-78
2023/06/08 12:30:08;;;;;;;6.93;6.23;;;45.20;1.00;;;;;;4960421;28;20440;-77
2023/06/08 12:32:35;;;;;;;6.03;5.53;;;45.90;1.00;;;;;;4961289;28;20551;-77
2023/06/08 12:35:02;;;;;;;7.20;6.60;;;46.10;1.00;;;;;;4957896;28;20465;-79
2023/06/08 12:37:31;;;;;;;9.93;6.47;;;46.10;1.00;;;;;;4962799;28;20527;-78
2023/06/08 12:40:00;;;;;;;4.60;4.20;;;45.80;1.00;;;;;;4960520;28;20481;-78
2023/06/08 12:42:27;;;;;;;5.80;5.40;;;46.00;1.00;;;;;;4963540;28;20491;-80
2023/06/08 12:44:55;;;;;;;6.10;5.60;;;45.70;1.00;;;;;;4962059;28;20468;-79
2023/06/08 12:47:22;;;;;;;5.57;5.10;;;45.10;1.00;;;;;;4926072;28;20702;-77
2023/06/08 12:49:51;;;;;;;5.80;5.40;;;43.10;1.00;;;;;;4962479;28;20456;-77
2023/06/08 12:52:20;;;;;;;6.17;5.57;;;40.60;1.00;;;;;;4959556;28;20495;-77
2023/06/08 12:54:50;;;;;;;6.40;5.33;;;38.70;1.00;;;;;;4966069;28;20480;-78
2023/06/08 12:57:20;;;;;;;6.70;5.50;;;38.00;1.00;;;;;;4963459;28;20507;-78
2023/06/08 12:59:47;;;;;;;7.03;6.50;;;39.20;1.00;;;;;;4963024;28;20556;-77
2023/06/08 13:02:19;;;;;;;6.70;6.07;;;40.80;1.00;;;;;;4963148;28;21074;-78
2023/06/08 13:04:47;;;;;;;6.37;5.77;;;42.20;1.00;;;;;;4962610;28;20425;-79
2023/06/08 13:07:14;;;;;;;6.03;5.43;;;43.50;1.00;;;;;;4959284;28;20909;-78
2023/06/08 13:09:41;;;;;;;6.77;6.07;;;43.60;1.00;;;;;;4961432;28;20471;-79
2023/06/08 13:12:12;;;;;;;6.13;5.53;;;43.90;1.00;;;;;;4959759;28;20483;-77
2023/06/08 13:14:40;;;;;;;5.40;5.00;;;44.30;1.00;;;;;;4951490;28;21001;-78
2023/06/08 13:17:09;;;;;;;6.20;5.80;;;44.70;1.00;;;;;;4957556;28;20576;-78
2023/06/08 13:19:36;;;;;;;7.00;6.27;;;44.30;1.00;;;;;;4964013;28;20953;-78
2023/06/08 13:22:04;;;;;;;7.83;7.13;;;41.70;1.00;;;;;;4961838;28;20464;-78
2023/06/08 13:24:31;;;;;;;7.10;6.50;;;41.30;1.00;;;;;;4959949;28;21728;-77